TJPS/PSE METAR and TAF weather

Enter ICAO airport designator
Station Type Date Time Source
TJPS METAR 2024/06/15 22:35 UTC NOAA

TJPS 152235Z AUTO 12005KT 10SM FEW027 30/24 A2995 RMK AO2 PWINO


Station Type Date Time Source
TJPS Decoded METAR 2024/06/15 22:35 UTC NOAA

Ponce, Mercedita Airport, PR, United States (TJPS) 18-01N 066-34W
Jun 15, 2024 - 06:35 PM EDT / 2024.06.15 2235 UTC
Wind: from the ESE (120 degrees) at 6 MPH (5 KT):0
Visibility: 10 mile(s):0
Sky conditions: mostly clear
Temperature: 86 F (30 C)
Heat index: 95.0 F (35.0 C):1
Dew Point: 75 F (24 C)
Relative Humidity: 70%
Pressure (altimeter): 29.95 in. Hg (1014 hPa)
ob: TJPS 152235Z AUTO 12005KT 10SM FEW027 30/24 A2995 RMK AO2 PWINO
cycle: 22

Station Type Date Time Source
TJPS TAF 2024/06/15 18:48 UTC NOAA